createdAt,value
2023-02-19T00:01:12.421Z,23.10
2023-02-19T00:03:39.438Z,24.02
2023-02-19T00:06:07.913Z,21.75
2023-02-19T00:08:35.186Z,19.38
2023-02-19T00:11:10.485Z,19.30
2023-02-19T00:13:42.301Z,21.48
2023-02-19T00:16:36.385Z,21.00
2023-02-19T00:19:05.304Z,21.05
2023-02-19T00:21:31.564Z,20.17
2023-02-19T00:24:00.838Z,21.15
2023-02-19T00:26:27.341Z,23.35
2023-02-19T00:28:54.563Z,22.90
2023-02-19T00:31:23.231Z,21.00
2023-02-19T00:33:51.909Z,23.85
2023-02-19T00:36:18.424Z,22.65
2023-02-19T00:38:45.287Z,20.77
2023-02-19T00:41:19.109Z,22.15
2023-02-19T00:43:53.801Z,21.38
2023-02-19T00:46:23.896Z,14.90
2023-02-19T00:48:51.813Z,16.52
2023-02-19T00:51:18.528Z,16.30
2023-02-19T00:53:44.954Z,15.40
2023-02-19T00:56:11.333Z,11.88
2023-02-19T00:58:37.670Z,12.77
2023-02-19T01:01:05.710Z,10.55
2023-02-19T01:03:32.811Z,11.23
2023-02-19T01:05:58.816Z,10.85
2023-02-19T01:08:24.711Z,11.77
2023-02-19T01:10:50.617Z,11.75
2023-02-19T01:13:17.640Z,12.95
2023-02-19T01:15:43.634Z,9.80
2023-02-19T01:18:10.276Z,9.70
2023-02-19T01:20:41.680Z,10.85
2023-02-19T01:23:08.792Z,10.18
2023-02-19T01:25:34.642Z,12.30
2023-02-19T01:28:00.471Z,9.85
2023-02-19T01:30:26.396Z,10.60
2023-02-19T01:32:52.177Z,10.30
2023-02-19T01:35:17.989Z,10.82
2023-02-19T01:37:43.814Z,9.50
2023-02-19T01:40:09.882Z,11.55
2023-02-19T01:42:35.958Z,9.95
2023-02-19T01:45:21.588Z,9.82
2023-02-19T01:48:01.343Z,11.98
2023-02-19T01:50:30.196Z,13.13
2023-02-19T01:52:56.395Z,13.23
2023-02-19T01:55:23.339Z,15.95
2023-02-19T01:57:54.536Z,18.77
2023-02-19T02:00:20.413Z,18.58
2023-02-19T02:02:50.764Z,20.27
2023-02-19T02:05:49.694Z,20.20
2023-02-19T02:08:35.486Z,15.20
2023-02-19T02:11:01.805Z,17.95
2023-02-19T02:13:28.141Z,16.95
2023-02-19T02:16:23.317Z,18.38
2023-02-19T02:19:01.331Z,16.80
2023-02-19T02:21:43.993Z,14.25
2023-02-19T02:24:31.697Z,16.20
2023-02-19T02:27:10.013Z,16.50
2023-02-19T02:29:51.231Z,17.27
2023-02-19T02:32:24.334Z,18.85
2023-02-19T02:35:00.896Z,18.17
2023-02-19T02:37:32.802Z,19.65
2023-02-19T02:40:00.034Z,16.23
2023-02-19T02:42:28.437Z,17.80
2023-02-19T02:45:14.582Z,16.67
2023-02-19T02:47:54.153Z,21.25
2023-02-19T02:50:32.030Z,26.42
2023-02-19T02:53:24.534Z,22.67
2023-02-19T02:55:52.843Z,25.75
2023-02-19T02:58:21.986Z,24.48
2023-02-19T03:01:13.279Z,25.10
2023-02-19T03:03:42.586Z,24.90
2023-02-19T03:06:12.602Z,27.67
2023-02-19T03:09:06.815Z,24.60
2023-02-19T03:11:54.687Z,27.17
2023-02-19T03:14:53.862Z,30.27
2023-02-19T03:17:51.753Z,29.27
2023-02-19T03:20:22.311Z,27.67
2023-02-19T03:22:50.294Z,27.77
2023-02-19T03:25:42.194Z,27.48
2023-02-19T03:28:10.483Z,27.55
2023-02-19T03:30:42.248Z,26.08
2023-02-19T03:33:14.997Z,25.73
2023-02-19T03:35:52.142Z,21.40
2023-02-19T03:38:27.406Z,25.50
2023-02-19T03:41:10.170Z,26.88
2023-02-19T03:43:43.431Z,29.77
2023-02-19T03:46:22.418Z,30.60
2023-02-19T03:48:56.617Z,20.38
2023-02-19T03:51:40.952Z,17.42
2023-02-19T03:54:21.085Z,16.45
2023-02-19T03:56:56.890Z,22.95
2023-02-19T03:59:48.159Z,26.73
2023-02-19T04:02:32.193Z,27.45
2023-02-19T04:05:15.879Z,26.77
2023-02-19T04:07:45.781Z,30.13
2023-02-19T04:10:13.574Z,29.05
2023-02-19T04:12:43.659Z,28.15
2023-02-19T04:15:14.722Z,25.02
2023-02-19T04:17:50.030Z,25.77
2023-02-19T04:20:18.122Z,23.20
2023-02-19T04:22:44.143Z,23.63
2023-02-19T04:25:10.104Z,24.45
2023-02-19T04:27:39.564Z,23.55
2023-02-19T04:30:07.752Z,22.40
2023-02-19T04:32:33.650Z,20.55
2023-02-19T04:34:59.478Z,15.38
2023-02-19T04:37:25.443Z,17.15
2023-02-19T04:39:51.441Z,20.35
2023-02-19T04:42:17.242Z,18.55
2023-02-19T04:44:43.020Z,19.48
2023-02-19T04:47:08.873Z,26.25
2023-02-19T04:49:34.634Z,21.65
2023-02-19T04:52:00.631Z,24.48
2023-02-19T04:54:26.450Z,18.38
2023-02-19T04:56:52.217Z,20.20
2023-02-19T04:59:18.045Z,19.30
2023-02-19T05:01:43.843Z,19.33
2023-02-19T05:04:09.673Z,18.15
2023-02-19T05:06:35.619Z,18.42
2023-02-19T05:09:01.501Z,19.75
2023-02-19T05:11:27.370Z,16.88
2023-02-19T05:13:54.939Z,17.98
2023-02-19T05:16:20.752Z,16.95
2023-02-19T05:18:46.693Z,20.08
2023-02-19T05:21:13.133Z,20.50
2023-02-19T05:23:39.213Z,16.05
2023-02-19T05:26:07.151Z,15.75
2023-02-19T05:28:33.476Z,17.60
2023-02-19T05:31:04.351Z,17.75
2023-02-19T05:33:30.159Z,19.25
2023-02-19T05:35:56.018Z,19.15
2023-02-19T05:38:22.872Z,18.90
2023-02-19T05:40:48.951Z,15.30
2023-02-19T05:43:15.577Z,19.17
2023-02-19T05:45:42.440Z,16.95
2023-02-19T05:48:09.819Z,13.13
2023-02-19T05:50:38.212Z,19.60
2023-02-19T05:53:05.446Z,17.67
2023-02-19T05:55:34.896Z,16.20
2023-02-19T05:58:00.982Z,22.48
2023-02-19T06:00:29.737Z,15.52
2023-02-19T06:02:55.604Z,15.57
2023-02-19T06:05:21.487Z,18.20
2023-02-19T06:07:49.682Z,15.98
2023-02-19T06:10:16.256Z,17.48
2023-02-19T06:12:42.132Z,19.10
2023-02-19T06:15:08.709Z,18.20
2023-02-19T06:17:34.627Z,21.52
2023-02-19T06:20:01.258Z,23.60
2023-02-19T06:22:27.496Z,16.27
2023-02-19T06:24:53.415Z,18.50
2023-02-19T06:27:19.579Z,20.98
2023-02-19T06:29:45.354Z,18.95
2023-02-19T06:32:11.316Z,21.08
2023-02-19T06:34:37.202Z,18.30
2023-02-19T06:37:03.080Z,23.27
2023-02-19T06:39:29.052Z,23.25
2023-02-19T06:41:58.528Z,29.95
2023-02-19T06:44:25.061Z,27.15
2023-02-19T06:46:54.577Z,25.27
2023-02-19T06:49:20.664Z,28.92
2023-02-19T06:51:46.720Z,25.30
2023-02-19T06:54:12.510Z,25.35
2023-02-19T06:56:40.191Z,24.33
2023-02-19T06:59:08.693Z,26.42
2023-02-19T07:01:35.726Z,26.65
2023-02-19T07:04:01.974Z,20.45
2023-02-19T07:06:28.294Z,18.77
2023-02-19T07:08:55.772Z,16.60
2023-02-19T07:11:21.559Z,18.55
2023-02-19T07:13:47.334Z,18.80
2023-02-19T07:16:13.569Z,19.38
2023-02-19T07:18:40.175Z,22.60
2023-02-19T07:21:08.865Z,21.35
2023-02-19T07:23:35.032Z,16.50
2023-02-19T07:26:02.002Z,19.90
2023-02-19T07:28:27.821Z,20.17
2023-02-19T07:30:54.038Z,17.27
2023-02-19T07:33:19.892Z,17.90
2023-02-19T07:35:50.250Z,19.35
2023-02-19T07:38:19.637Z,18.95
2023-02-19T07:40:56.675Z,15.95
2023-02-19T07:43:23.871Z,15.88
2023-02-19T07:45:50.238Z,13.50
2023-02-19T07:48:16.846Z,13.75
2023-02-19T07:50:50.408Z,14.55
2023-02-19T07:53:16.157Z,13.40
2023-02-19T07:55:42.060Z,11.80
2023-02-19T07:58:07.884Z,10.27
2023-02-19T08:00:33.677Z,10.13
2023-02-19T08:02:59.635Z,11.05
2023-02-19T08:05:26.855Z,7.57
2023-02-19T08:07:53.362Z,8.25
2023-02-19T08:10:37.747Z,7.32
2023-02-19T08:13:18.762Z,6.90
2023-02-19T08:15:45.881Z,8.15
2023-02-19T08:18:13.232Z,9.52
2023-02-19T08:20:39.351Z,12.75
2023-02-19T08:23:06.137Z,13.57
2023-02-19T08:25:32.721Z,17.00
2023-02-19T08:27:59.747Z,17.98
2023-02-19T08:30:27.317Z,14.68
2023-02-19T08:32:53.456Z,21.58
2023-02-19T08:35:19.687Z,21.48
2023-02-19T08:37:45.594Z,21.23
2023-02-19T08:40:11.950Z,26.83
2023-02-19T08:42:37.785Z,25.48
2023-02-19T08:45:04.643Z,20.45
2023-02-19T08:47:30.502Z,21.45
2023-02-19T08:49:56.250Z,24.35
2023-02-19T08:52:22.131Z,21.70
2023-02-19T08:54:47.956Z,26.98
2023-02-19T08:57:14.020Z,22.88
2023-02-19T08:59:39.811Z,26.27
2023-02-19T09:02:05.910Z,21.05
2023-02-19T09:04:31.828Z,23.38
2023-02-19T09:06:58.309Z,22.45
2023-02-19T09:09:24.143Z,22.20
2023-02-19T09:11:49.934Z,22.20
2023-02-19T09:14:15.793Z,22.08
2023-02-19T09:16:41.525Z,24.27
2023-02-19T09:19:07.451Z,25.45
2023-02-19T09:21:33.304Z,24.27
2023-02-19T09:23:59.111Z,22.10
2023-02-19T09:26:24.985Z,25.05
2023-02-19T09:28:50.801Z,20.38
2023-02-19T09:31:17.061Z,19.70
2023-02-19T09:33:44.445Z,22.17
2023-02-19T09:36:11.821Z,19.33
2023-02-19T09:38:39.132Z,20.10
2023-02-19T09:41:16.306Z,23.50
2023-02-19T09:43:43.282Z,26.20
2023-02-19T09:46:34.391Z,25.77
2023-02-19T09:49:06.897Z,27.50
2023-02-19T09:51:37.278Z,27.85
2023-02-19T09:54:09.650Z,25.00
2023-02-19T09:56:35.463Z,27.55
2023-02-19T09:59:02.032Z,26.30
2023-02-19T10:01:36.879Z,31.33
2023-02-19T10:04:03.233Z,26.67
2023-02-19T10:06:29.499Z,26.65
2023-02-19T10:09:10.894Z,24.77
2023-02-19T10:11:36.835Z,25.63
2023-02-19T10:14:08.371Z,24.77
2023-02-19T10:16:39.958Z,29.30
2023-02-19T10:19:09.832Z,27.45
2023-02-19T10:21:37.272Z,27.63
2023-02-19T10:24:05.419Z,22.33
2023-02-19T10:26:34.606Z,27.90
2023-02-19T10:29:01.301Z,24.15
2023-02-19T10:31:27.347Z,23.20
2023-02-19T10:33:58.032Z,21.48
2023-02-19T10:36:36.993Z,21.00
2023-02-19T10:39:21.074Z,21.48
2023-02-19T10:41:49.968Z,20.52
2023-02-19T10:44:23.950Z,18.55
2023-02-19T10:46:54.535Z,22.25
2023-02-19T10:49:39.590Z,17.92
2023-02-19T10:52:20.526Z,15.83
2023-02-19T10:54:54.632Z,16.98
2023-02-19T10:57:22.190Z,15.00
2023-02-19T10:59:50.653Z,14.57
2023-02-19T11:02:18.938Z,13.60
2023-02-19T11:05:05.665Z,13.25
2023-02-19T11:07:32.267Z,13.57
2023-02-19T11:09:59.115Z,14.30
2023-02-19T11:12:32.689Z,14.45
2023-02-19T11:15:19.690Z,17.17
2023-02-19T11:17:54.646Z,13.93
2023-02-19T11:20:20.755Z,16.52
2023-02-19T11:22:48.408Z,16.60
2023-02-19T11:25:14.344Z,17.25
2023-02-19T11:28:07.752Z,19.05
2023-02-19T11:30:42.568Z,15.63
2023-02-19T11:33:21.388Z,15.70
2023-02-19T11:35:49.760Z,14.52
2023-02-19T11:38:17.527Z,13.23
2023-02-19T11:40:49.104Z,16.85
2023-02-19T11:43:51.585Z,14.30
2023-02-19T11:46:51.578Z,11.18
2023-02-19T11:50:02.327Z,16.98
2023-02-19T11:52:41.441Z,17.10
2023-02-19T11:55:24.754Z,16.98
2023-02-19T11:58:29.548Z,12.77
2023-02-19T12:01:06.078Z,12.75
2023-02-19T12:04:10.119Z,11.55
2023-02-19T12:06:46.535Z,10.85
2023-02-19T12:09:18.028Z,14.70
2023-02-19T12:12:01.630Z,13.43
2023-02-19T12:14:54.395Z,15.07
2023-02-19T12:17:50.614Z,14.35
2023-02-19T12:20:22.247Z,16.60
2023-02-19T12:23:06.194Z,13.85
2023-02-19T12:26:14.441Z,13.32
2023-02-19T12:29:17.627Z,12.70
2023-02-19T12:32:09.240Z,12.73
2023-02-19T12:34:50.345Z,12.55
2023-02-19T12:37:33.895Z,13.73
2023-02-19T12:40:27.432Z,13.10
2023-02-19T12:43:00.357Z,12.55
2023-02-19T12:45:40.098Z,13.70
2023-02-19T12:48:16.262Z,14.07
2023-02-19T12:50:44.322Z,14.07
2023-02-19T12:53:25.465Z,14.70
2023-02-19T12:55:52.402Z,13.25
2023-02-19T12:58:50.100Z,13.43
2023-02-19T13:01:25.907Z,12.40
2023-02-19T13:04:21.919Z,9.02
2023-02-19T13:06:55.650Z,8.60
2023-02-19T13:09:32.537Z,8.57
2023-02-19T13:12:05.652Z,6.88
2023-02-19T13:14:40.979Z,9.63
2023-02-19T13:17:21.899Z,8.70
2023-02-19T13:19:52.039Z,8.35
2023-02-19T13:22:48.290Z,8.77
2023-02-19T13:25:16.858Z,10.73
2023-02-19T13:28:15.000Z,10.27
2023-02-19T13:31:13.510Z,12.07
2023-02-19T13:33:53.265Z,9.27
2023-02-19T13:36:27.712Z,7.03
2023-02-19T13:38:56.680Z,5.35
2023-02-19T13:41:29.544Z,3.60
2023-02-19T13:43:59.962Z,4.57
2023-02-19T13:46:38.284Z,3.55
2023-02-19T13:49:22.469Z,6.05
2023-02-19T13:51:52.494Z,4.30
2023-02-19T13:54:29.861Z,4.25
2023-02-19T13:57:17.739Z,7.55
2023-02-19T13:59:44.659Z,5.10
2023-02-19T14:02:19.514Z,4.43
2023-02-19T14:04:53.515Z,7.13
2023-02-19T14:07:25.301Z,8.32
2023-02-19T14:09:51.212Z,4.63
2023-02-19T14:12:20.097Z,4.18
2023-02-19T14:14:53.705Z,4.50
2023-02-19T14:17:32.534Z,3.97
2023-02-19T14:20:09.431Z,8.15
2023-02-19T14:22:44.072Z,4.57
2023-02-19T14:25:31.375Z,4.47
2023-02-19T14:28:32.701Z,4.28
2023-02-19T14:31:07.380Z,5.55
2023-02-19T14:33:35.464Z,7.70
2023-02-19T14:36:22.905Z,4.78
2023-02-19T14:38:55.547Z,8.25
2023-02-19T14:41:22.775Z,8.48
2023-02-19T14:43:51.663Z,7.60
2023-02-19T14:46:22.844Z,8.43
2023-02-19T14:48:49.993Z,8.30
2023-02-19T14:51:39.873Z,9.13
2023-02-19T14:54:31.306Z,8.30
2023-02-19T14:56:59.057Z,9.65
2023-02-19T14:59:29.580Z,10.48
2023-02-19T15:02:12.604Z,14.23
2023-02-19T15:04:39.414Z,9.70
2023-02-19T15:07:14.552Z,10.85
2023-02-19T15:09:44.900Z,14.75
2023-02-19T15:12:24.470Z,12.50
2023-02-19T15:14:53.438Z,13.25
2023-02-19T15:17:26.911Z,16.75
2023-02-19T15:19:54.943Z,14.93
2023-02-19T15:22:23.784Z,13.48
2023-02-19T15:24:49.916Z,16.05
2023-02-19T15:27:21.974Z,12.18
2023-02-19T15:29:53.012Z,18.50
2023-02-19T15:32:22.665Z,17.65
2023-02-19T15:35:00.791Z,16.15
2023-02-19T15:37:30.410Z,19.60
2023-02-19T15:39:59.422Z,19.05
2023-02-19T15:42:28.878Z,20.52
2023-02-19T15:45:00.548Z,19.95
2023-02-19T15:47:37.515Z,22.83
2023-02-19T15:50:14.936Z,20.58
2023-02-19T15:52:44.792Z,21.38
2023-02-19T15:55:27.667Z,24.58
2023-02-19T15:58:07.817Z,24.98
2023-02-19T16:00:46.802Z,21.15
2023-02-19T16:03:22.530Z,26.95
2023-02-19T16:06:01.114Z,25.88
2023-02-19T16:08:38.582Z,27.13
2023-02-19T16:11:25.600Z,26.88
2023-02-19T16:13:52.082Z,24.63
2023-02-19T16:16:34.693Z,23.85
2023-02-19T16:19:00.998Z,24.83
2023-02-19T16:21:27.475Z,24.17
2023-02-19T16:24:04.665Z,22.42
2023-02-19T16:26:39.854Z,18.52
2023-02-19T16:29:18.220Z,20.13
2023-02-19T16:31:52.517Z,18.67
2023-02-19T16:34:33.722Z,23.80
2023-02-19T16:37:03.149Z,23.27
2023-02-19T16:39:29.730Z,19.73
2023-02-19T16:42:09.984Z,22.15
2023-02-19T16:44:35.867Z,18.42
2023-02-19T16:47:11.917Z,19.83
2023-02-19T16:49:37.887Z,15.07
2023-02-19T16:52:04.511Z,17.77
2023-02-19T16:54:30.921Z,21.42
2023-02-19T16:56:56.778Z,15.88
2023-02-19T16:59:22.795Z,14.20
2023-02-19T17:01:48.711Z,14.48
2023-02-19T17:04:15.319Z,21.80
2023-02-19T17:06:41.379Z,19.73
2023-02-19T17:09:08.372Z,15.57
2023-02-19T17:11:35.381Z,22.02
2023-02-19T17:14:01.777Z,15.48
2023-02-19T17:16:38.890Z,16.50
2023-02-19T17:19:14.544Z,17.20
2023-02-19T17:21:40.821Z,14.07
2023-02-19T17:24:07.226Z,12.18
2023-02-19T17:26:33.165Z,14.35
2023-02-19T17:29:01.221Z,17.13
2023-02-19T17:31:27.765Z,11.68
2023-02-19T17:33:54.197Z,16.00
2023-02-19T17:36:31.575Z,14.63
2023-02-19T17:38:59.596Z,10.98
2023-02-19T17:41:25.701Z,12.57
2023-02-19T17:43:51.740Z,13.45
2023-02-19T17:46:19.666Z,12.27
2023-02-19T17:48:45.617Z,12.63
2023-02-19T17:51:12.864Z,12.45
2023-02-19T17:53:39.111Z,10.73
2023-02-19T17:56:05.162Z,7.63
2023-02-19T17:58:31.130Z,6.53
2023-02-19T18:00:57.312Z,8.18
2023-02-19T18:03:23.092Z,5.35
2023-02-19T18:05:48.864Z,7.03
2023-02-19T18:08:14.810Z,8.75
2023-02-19T18:10:40.700Z,7.05
2023-02-19T18:13:06.537Z,8.18
2023-02-19T18:15:32.745Z,9.98
2023-02-19T18:17:58.721Z,8.88
2023-02-19T18:20:28.655Z,9.40
2023-02-19T18:22:55.527Z,8.13
2023-02-19T18:25:22.302Z,12.50
2023-02-19T18:27:48.610Z,6.68
2023-02-19T18:30:18.213Z,5.63
2023-02-19T18:32:45.101Z,7.13
2023-02-19T18:35:11.249Z,8.98
2023-02-19T18:37:37.562Z,7.40
2023-02-19T18:40:05.125Z,6.88
2023-02-19T18:42:31.256Z,9.43
2023-02-19T18:44:57.203Z,9.40
2023-02-19T18:47:24.984Z,8.13
2023-02-19T18:49:53.885Z,10.38
2023-02-19T18:52:21.279Z,12.07
2023-02-19T18:54:48.296Z,11.27
2023-02-19T18:57:15.165Z,9.23
2023-02-19T18:59:42.646Z,11.60
2023-02-19T19:02:09.734Z,11.00
2023-02-19T19:04:37.728Z,11.93
2023-02-19T19:07:08.976Z,13.02
2023-02-19T19:09:35.620Z,11.95
2023-02-19T19:12:02.556Z,11.73
2023-02-19T19:14:28.554Z,13.45
2023-02-19T19:16:54.822Z,10.55
2023-02-19T19:19:21.046Z,11.68
2023-02-19T19:21:53.471Z,13.43
2023-02-19T19:24:21.213Z,12.55
2023-02-19T19:26:49.082Z,16.00
2023-02-19T19:29:17.465Z,12.25
2023-02-19T19:31:43.968Z,12.77
2023-02-19T19:34:11.318Z,14.63
2023-02-19T19:36:37.778Z,13.95
2023-02-19T19:39:04.191Z,13.95
2023-02-19T19:41:30.825Z,12.82
2023-02-19T19:43:56.816Z,30.27
2023-02-19T19:46:23.041Z,14.50
2023-02-19T19:48:52.035Z,14.30
2023-02-19T19:51:18.171Z,12.43
2023-02-19T19:53:47.322Z,13.93
2023-02-19T19:56:13.547Z,13.25
2023-02-19T19:58:39.698Z,12.57
2023-02-19T20:01:06.168Z,13.75
2023-02-19T20:03:33.752Z,12.73
2023-02-19T20:06:00.577Z,12.77
2023-02-19T20:08:26.392Z,13.10
2023-02-19T20:10:52.255Z,11.77
2023-02-19T20:13:21.444Z,13.23
2023-02-19T20:15:47.358Z,13.57
2023-02-19T20:18:13.248Z,13.35
2023-02-19T20:20:39.112Z,14.10
2023-02-19T20:23:05.014Z,14.27
2023-02-19T20:25:30.873Z,13.68
2023-02-19T20:27:56.802Z,14.20
2023-02-19T20:30:23.645Z,14.60
2023-02-19T20:32:49.806Z,15.32
2023-02-19T20:39:22.028Z,14.95
2023-02-19T20:41:51.064Z,13.20
2023-02-19T20:44:18.209Z,13.18
2023-02-19T20:46:46.546Z,14.10
2023-02-19T20:49:14.370Z,12.57
2023-02-19T20:51:54.672Z,15.32
2023-02-19T20:54:23.439Z,13.38
2023-02-19T20:56:52.581Z,13.52
2023-02-19T20:59:23.671Z,13.80
2023-02-19T21:01:49.733Z,13.50
2023-02-19T21:04:17.542Z,14.82
2023-02-19T21:06:43.435Z,14.27
2023-02-19T21:09:09.624Z,16.30
2023-02-19T21:11:35.982Z,15.15
2023-02-19T21:14:01.892Z,14.18
2023-02-19T21:16:29.705Z,14.23
2023-02-19T21:18:56.818Z,14.73
2023-02-19T21:21:25.420Z,14.35
2023-02-19T21:23:56.200Z,14.27
2023-02-19T21:26:23.042Z,14.07
2023-02-19T21:28:52.552Z,13.27
2023-02-19T21:31:20.162Z,12.40
2023-02-19T21:33:46.489Z,12.85
2023-02-19T21:36:14.497Z,13.07
2023-02-19T21:38:40.418Z,14.30
2023-02-19T21:41:06.963Z,12.25
2023-02-19T21:43:32.782Z,13.57
2023-02-19T21:45:58.767Z,12.25
2023-02-19T21:48:24.570Z,14.63
2023-02-19T21:50:50.379Z,11.68
2023-02-19T21:53:16.255Z,12.13
2023-02-19T21:55:57.436Z,12.45
2023-02-19T21:58:23.891Z,11.45
2023-02-19T22:00:49.706Z,11.75
2023-02-19T22:03:15.864Z,11.82
2023-02-19T22:05:41.732Z,11.35
2023-02-19T22:08:07.435Z,11.98
2023-02-19T22:10:33.415Z,11.88
2023-02-19T22:12:59.302Z,10.45
2023-02-19T22:15:25.122Z,10.88
2023-02-19T22:17:51.018Z,9.85
2023-02-19T22:20:18.854Z,10.27
2023-02-19T22:22:44.717Z,11.15
2023-02-19T22:25:10.532Z,10.82
2023-02-19T22:27:36.371Z,11.48
2023-02-19T22:30:02.284Z,10.38
2023-02-19T22:32:28.591Z,10.25
2023-02-19T22:34:54.489Z,9.85
2023-02-19T22:37:20.328Z,9.70
2023-02-19T22:39:46.072Z,9.57
2023-02-19T22:42:11.912Z,9.02
2023-02-19T22:44:37.857Z,10.20
2023-02-19T22:47:03.721Z,10.18
2023-02-19T22:49:29.570Z,9.63
2023-02-19T22:52:04.832Z,10.57
2023-02-19T22:54:30.792Z,10.00
2023-02-19T22:56:56.788Z,9.45
2023-02-19T22:59:22.651Z,12.23
2023-02-19T23:01:49.177Z,9.75
2023-02-19T23:04:15.591Z,9.48
2023-02-19T23:06:43.993Z,8.32
2023-02-19T23:09:19.058Z,10.38
2023-02-19T23:11:45.205Z,9.40
2023-02-19T23:14:11.966Z,8.48
2023-02-19T23:16:37.867Z,8.55
2023-02-19T23:19:05.825Z,8.43
2023-02-19T23:21:32.578Z,9.85
2023-02-19T23:23:58.833Z,7.22
2023-02-19T23:26:25.165Z,7.20
2023-02-19T23:28:51.110Z,7.63
2023-02-19T23:31:17.299Z,8.00
2023-02-19T23:33:44.360Z,8.60
2023-02-19T23:36:11.330Z,7.55
2023-02-19T23:38:38.545Z,7.28
2023-02-19T23:41:09.856Z,5.90
2023-02-19T23:43:36.293Z,5.97
2023-02-19T23:46:03.052Z,5.88
2023-02-19T23:48:28.970Z,4.50
2023-02-19T23:50:55.056Z,6.00
2023-02-19T23:53:20.892Z,6.18
2023-02-19T23:55:46.686Z,7.20
2023-02-19T23:58:12.615Z,6.10
